createdAt,value
2022-09-17T09:10:19.863Z,3.13
2022-09-17T09:12:48.285Z,2.13
2022-09-17T09:15:23.046Z,2.75
2022-09-17T09:17:53.035Z,2.65
2022-09-17T09:20:23.270Z,2.85
2022-09-17T09:22:52.078Z,3.22
2022-09-17T09:25:23.079Z,3.70
2022-09-17T09:27:57.805Z,2.58
2022-09-17T09:30:26.217Z,2.85
2022-09-17T09:32:59.264Z,3.25
2022-09-17T09:35:28.403Z,3.28
2022-09-17T09:37:59.178Z,3.13
2022-09-17T09:40:34.809Z,3.97
2022-09-17T09:43:04.264Z,2.92
2022-09-17T09:45:40.361Z,2.47
2022-09-17T09:48:15.081Z,2.65
2022-09-17T09:51:05.787Z,2.67
2022-09-17T09:53:41.979Z,2.53
2022-09-17T09:56:20.284Z,2.55
2022-09-17T09:58:47.817Z,2.92
2022-09-17T10:04:38.378Z,2.67
2022-09-17T10:07:07.289Z,2.33
2022-09-17T10:09:36.352Z,2.00
2022-09-17T10:12:05.528Z,2.85
2022-09-17T10:14:33.570Z,2.22
2022-09-17T10:17:19.340Z,2.83
2022-09-17T10:19:48.495Z,2.20
2022-09-17T10:22:20.824Z,1.77
2022-09-17T10:24:48.670Z,2.00
2022-09-17T10:27:18.068Z,1.92
2022-09-17T10:29:46.148Z,2.10
2022-09-17T10:32:16.845Z,2.17
2022-09-17T10:34:58.101Z,2.08
2022-09-17T10:37:42.574Z,2.05
2022-09-17T10:40:27.428Z,2.20
2022-09-17T10:43:09.994Z,2.00
2022-09-17T10:45:40.330Z,2.20
2022-09-17T10:48:14.906Z,1.85
2022-09-17T10:50:42.556Z,2.00
2022-09-17T10:53:16.739Z,2.10
2022-09-17T10:55:46.446Z,1.85
2022-09-17T10:58:20.868Z,1.50
2022-09-17T11:00:53.115Z,1.85
2022-09-17T11:03:30.150Z,2.38
2022-09-17T11:06:13.707Z,2.10
2022-09-17T11:08:46.595Z,2.00
2022-09-17T11:11:19.370Z,2.33
2022-09-17T11:13:54.097Z,2.60
2022-09-17T11:16:31.912Z,2.28
2022-09-17T11:19:02.984Z,2.15
2022-09-17T11:21:49.626Z,2.15
2022-09-17T11:24:30.713Z,1.90
2022-09-17T11:27:03.618Z,1.67
2022-09-17T11:29:41.439Z,1.90
2022-09-17T11:32:15.779Z,1.77
2022-09-17T11:34:45.091Z,2.10
2022-09-17T11:37:15.699Z,1.90
2022-09-17T11:39:48.316Z,2.05
2022-09-17T11:42:18.442Z,3.22
2022-09-17T11:44:48.632Z,1.98
2022-09-17T11:47:20.367Z,1.73
2022-09-17T11:49:52.382Z,2.20
2022-09-17T11:52:21.905Z,1.52
2022-09-17T11:54:53.831Z,1.85
2022-09-17T11:57:23.653Z,2.00
2022-09-17T11:59:53.143Z,2.05
2022-09-17T12:02:23.407Z,2.28
2022-09-17T12:04:56.195Z,2.17
2022-09-17T12:07:30.167Z,3.03
2022-09-17T12:10:01.596Z,2.90
2022-09-17T12:12:48.889Z,2.30
2022-09-17T12:15:19.708Z,2.38
2022-09-17T12:18:03.904Z,2.95
2022-09-17T12:20:41.402Z,2.95
2022-09-17T12:23:12.340Z,2.95
2022-09-17T12:25:45.235Z,2.80
2022-09-17T12:28:17.010Z,2.45
2022-09-17T12:30:46.999Z,2.60
2022-09-17T12:33:20.932Z,2.08
2022-09-17T12:36:03.995Z,2.47
2022-09-17T12:38:53.639Z,1.70
2022-09-17T12:41:25.848Z,1.92
2022-09-17T12:44:00.452Z,1.67
2022-09-17T12:46:32.823Z,1.35
2022-09-17T13:14:21.846Z,1.60
2022-09-17T13:16:53.971Z,1.23
2022-09-17T13:19:26.916Z,1.20
2022-09-17T13:21:55.754Z,1.75
